• Join FlightAware (Why Join?)
  • Login
  • US Flag 
10:09AM EDT


 

Airport Tracker/Info


-or-


 

Live Flight TrackerFlight Track Log ✈ AFR7369 ✈ 16-May-2013 ✈ LFRB / BES - LFPO / ORY

Flight Track Log - Related Links

Times and Time Zones

All times are in EDT time to prevent confusion due to time zone crossing. See the AFR7369 flight status page for this flight to view local times or setup timezone preferences in your user account.

Time Position Orientation Groundspeed Altitude Reporting Facility
EDT Latitude Longitude Course Direction KTS MPH feet Rate Location/Type
08:42AM 48.5191 -3.3385 84° East  Level Estimated
08:43AM 48.5245 -3.2483 85° East  Level Estimated
08:44AM 48.5299 -3.1582 85° East  Level Estimated
08:45AM 48.5353 -3.0680 85° East  Level Estimated
08:46AM 48.5405 -2.9778 85° East  Level Estimated
08:47AM 48.5457 -2.8876 85° East  Level Estimated
08:48AM 48.5508 -2.7974 85° East  Level Estimated
08:49AM 48.5559 -2.7071 85° East  Level Estimated
08:50AM 48.5608 -2.6169 85° East  Level Estimated
08:51AM 48.5658 -2.5266 85° East  Level Estimated
08:52AM 48.5706 -2.4363 85° East  Level Estimated
08:53AM 48.5754 -2.3459 85° East  Level Estimated
08:54AM 48.5801 -2.2556 85° East  Level Estimated
08:55AM 48.5847 -2.1653 86° East  Level Estimated
08:56AM 48.5892 -2.0749 86° East  Level Estimated
08:57AM 48.5937 -1.9845 86° East  Level Estimated
08:58AM 48.5981 -1.8941 86° East  Level Estimated
08:59AM 48.6025 -1.8037 86° East  Level Estimated
09:00AM 48.6067 -1.7133 86° East  Level Estimated
09:01AM 48.6109 -1.6228 86° East  Level Estimated
09:02AM 48.6151 -1.5323 86° East  Level Estimated
09:03AM 48.6191 -1.4419 86° East  Level Estimated
09:04AM 48.6231 -1.3514 86° East  Level Estimated
09:05AM 48.6270 -1.2609 86° East  Level Estimated
09:06AM 48.6309 -1.1703 86° East  Level Estimated
09:07AM 48.6347 -1.0798 86° East  Level Estimated
09:08AM 48.6384 -0.9893 86° East  Level Estimated
09:09AM 48.6420 -0.8987 86° East  Level Estimated
09:10AM 48.6455 -0.8081 87° East  Level Estimated
09:11AM 48.6490 -0.7175 87° East  Level Estimated
09:12AM 48.6525 -0.6269 87° East  Level Estimated
09:13AM 48.6558 -0.5363 87° East  Level Estimated
09:14AM 48.6591 -0.4457 87° East  Level Estimated
09:15AM 48.6623 -0.3551 87° East  Level Estimated
09:16AM 48.6654 -0.2644 87° East  Level Estimated
09:17AM 48.6685 -0.1738 87° East  Level Estimated
09:18AM 48.6718 -0.0738 87° East  Level Estimated
09:19AM 48.6750 0.0262 87° East  Level Estimated
09:20AM 48.6781 0.1263 87° East  Level Estimated
09:21AM 48.6812 0.2263 87° East  Level Estimated
09:22AM 48.6841 0.3264 87° East  Level Estimated
09:23AM 48.6870 0.4264 87° East  Level Estimated
09:24AM 48.6898 0.5265 88° East  Level Estimated
09:25AM 48.6925 0.6266 88° East  Level Estimated
09:26AM 48.6950 0.7267 88° East  Level Estimated
09:27AM 48.6976 0.8268 88° East  Level Estimated
09:28AM 48.7000 0.9269 88° East  Level Estimated
09:29AM 48.7024 1.0270 88° East  Level Estimated
09:30AM 48.7046 1.1272 88° East  Level Estimated
09:31AM 48.7068 1.2273 88° East  Level Estimated
09:32AM 48.7089 1.3274 88° East  Level Estimated
09:33AM 48.7109 1.4276 88° East  Level Estimated
09:34AM 48.7129 1.5324 88° East  Level Estimated
09:35AM 48.7148 1.6372 88° East  Level Estimated
09:36AM 48.7166 1.7420 88° East  Level Estimated
09:37AM 48.7183 1.8468 89° East  Level Estimated
09:38AM 48.7199 1.9516 89° East  Level Estimated
09:39AM 48.7214 2.0565 89° East  Level Estimated
09:40AM 48.7228 2.1613 89° East  Level Estimated
09:41AM 48.7242 2.2661 89° East  Level Estimated
09:42AM 48.7253 2.3594 89° East  Level Estimated
09:43AM 48.7253 2.3594 127° Southeast  Level Estimated
09:44AM 48.7253 2.3594 127° Southeast  Level Estimated
09:45AM 48.7253 2.3594 127° Southeast  Level Estimated
09:46AM 48.7253 2.3594 127° Southeast  Level Estimated
09:47AM 48.7253 2.3594 127° Southeast  Level Estimated
09:48AM 48.7253 2.3594 127° Southeast  Level Estimated
09:49AM 48.7253 2.3594 127° Southeast  Level Estimated
09:50AM 48.7253 2.3594 127° Southeast  Level Estimated